sensor_id;sensor_type;location;lat;lon;timestamp;P1;durP1;ratioP1;P2;durP2;ratioP2
8397;SDS011;4236;54.504;9.588;2022-12-29T00:00:11;33.27;;;31.30;;
8397;SDS011;4236;54.504;9.588;2022-12-29T00:02:40;35.33;;;33.03;;
8397;SDS011;4236;54.504;9.588;2022-12-29T00:05:08;33.77;;;31.80;;
8397;SDS011;4236;54.504;9.588;2022-12-29T00:07:37;33.00;;;31.10;;
8397;SDS011;4236;54.504;9.588;2022-12-29T00:10:05;35.27;;;33.07;;
8397;SDS011;4236;54.504;9.588;2022-12-29T00:12:34;34.50;;;32.40;;
8397;SDS011;4236;54.504;9.588;2022-12-29T00:15:19;34.60;;;32.60;;
8397;SDS011;4236;54.504;9.588;2022-12-29T00:18:06;34.10;;;32.10;;
8397;SDS011;4236;54.504;9.588;2022-12-29T00:20:34;34.20;;;32.20;;
8397;SDS011;4236;54.504;9.588;2022-12-29T00:23:21;34.40;;;32.40;;
8397;SDS011;4236;54.504;9.588;2022-12-29T00:26:20;33.57;;;31.47;;
8397;SDS011;4236;54.504;9.588;2022-12-29T00:29:06;34.10;;;32.00;;
8397;SDS011;4236;54.504;9.588;2022-12-29T00:31:52;33.33;;;31.40;;
8397;SDS011;4236;54.504;9.588;2022-12-29T00:34:37;33.43;;;31.33;;
8397;SDS011;4236;54.504;9.588;2022-12-29T00:37:23;33.70;;;31.80;;
8397;SDS011;4236;54.504;9.588;2022-12-29T00:40:12;33.00;;;31.17;;
8397;SDS011;4236;54.504;9.588;2022-12-29T00:42:57;33.73;;;31.83;;
8397;SDS011;4236;54.504;9.588;2022-12-29T00:45:43;33.17;;;31.27;;
8397;SDS011;4236;54.504;9.588;2022-12-29T00:48:10;33.73;;;31.67;;
8397;SDS011;4236;54.504;9.588;2022-12-29T00:50:39;32.67;;;30.70;;
8397;SDS011;4236;54.504;9.588;2022-12-29T00:53:06;32.67;;;30.87;;
8397;SDS011;4236;54.504;9.588;2022-12-29T00:55:37;33.50;;;31.60;;
8397;SDS011;4236;54.504;9.588;2022-12-29T00:58:04;33.60;;;31.80;;
8397;SDS011;4236;54.504;9.588;2022-12-29T01:00:32;32.93;;;31.13;;
8397;SDS011;4236;54.504;9.588;2022-12-29T01:03:00;32.87;;;31.17;;
8397;SDS011;4236;54.504;9.588;2022-12-29T01:05:28;33.60;;;31.70;;
8397;SDS011;4236;54.504;9.588;2022-12-29T01:07:55;33.43;;;31.53;;
8397;SDS011;4236;54.504;9.588;2022-12-29T01:10:23;32.70;;;30.80;;
8397;SDS011;4236;54.504;9.588;2022-12-29T01:12:51;33.23;;;31.30;;
8397;SDS011;4236;54.504;9.588;2022-12-29T01:15:18;33.53;;;31.73;;
8397;SDS011;4236;54.504;9.588;2022-12-29T01:17:46;32.90;;;31.17;;
8397;SDS011;4236;54.504;9.588;2022-12-29T01:20:14;33.77;;;31.90;;
8397;SDS011;4236;54.504;9.588;2022-12-29T01:22:42;32.60;;;30.80;;
8397;SDS011;4236;54.504;9.588;2022-12-29T01:25:10;33.00;;;31.00;;
8397;SDS011;4236;54.504;9.588;2022-12-29T01:27:37;32.00;;;30.40;;
8397;SDS011;4236;54.504;9.588;2022-12-29T01:30:07;33.10;;;31.30;;
8397;SDS011;4236;54.504;9.588;2022-12-29T01:32:35;33.80;;;32.00;;
8397;SDS011;4236;54.504;9.588;2022-12-29T01:35:03;32.63;;;30.93;;
8397;SDS011;4236;54.504;9.588;2022-12-29T01:37:31;33.70;;;31.50;;
8397;SDS011;4236;54.504;9.588;2022-12-29T01:39:59;33.43;;;31.63;;
8397;SDS011;4236;54.504;9.588;2022-12-29T01:42:26;33.47;;;31.67;;
8397;SDS011;4236;54.504;9.588;2022-12-29T01:44:55;33.23;;;31.47;;
8397;SDS011;4236;54.504;9.588;2022-12-29T01:47:30;33.30;;;31.50;;
8397;SDS011;4236;54.504;9.588;2022-12-29T01:50:04;33.57;;;31.67;;
8397;SDS011;4236;54.504;9.588;2022-12-29T01:52:37;34.10;;;32.30;;
8397;SDS011;4236;54.504;9.588;2022-12-29T01:55:09;33.90;;;32.00;;
8397;SDS011;4236;54.504;9.588;2022-12-29T01:57:39;35.47;;;33.17;;
8397;SDS011;4236;54.504;9.588;2022-12-29T02:00:10;34.70;;;32.80;;
8397;SDS011;4236;54.504;9.588;2022-12-29T02:02:41;33.50;;;31.60;;
8397;SDS011;4236;54.504;9.588;2022-12-29T02:05:14;34.90;;;32.90;;
8397;SDS011;4236;54.504;9.588;2022-12-29T02:07:48;35.13;;;33.03;;
8397;SDS011;4236;54.504;9.588;2022-12-29T02:10:19;34.47;;;32.60;;
8397;SDS011;4236;54.504;9.588;2022-12-29T02:12:47;34.90;;;32.90;;
8397;SDS011;4236;54.504;9.588;2022-12-29T02:15:15;33.50;;;31.53;;
8397;SDS011;4236;54.504;9.588;2022-12-29T02:17:50;33.90;;;32.10;;
8397;SDS011;4236;54.504;9.588;2022-12-29T02:23:42;34.40;;;32.40;;
8397;SDS011;4236;54.504;9.588;2022-12-29T02:26:35;35.00;;;32.77;;
8397;SDS011;4236;54.504;9.588;2022-12-29T02:32:05;36.10;;;33.80;;
8397;SDS011;4236;54.504;9.588;2022-12-29T02:34:40;35.27;;;33.40;;
8397;SDS011;4236;54.504;9.588;2022-12-29T02:37:22;35.80;;;33.80;;
8397;SDS011;4236;54.504;9.588;2022-12-29T02:39:56;35.00;;;33.00;;
8397;SDS011;4236;54.504;9.588;2022-12-29T02:42:33;35.30;;;33.30;;
8397;SDS011;4236;54.504;9.588;2022-12-29T02:45:04;35.10;;;32.97;;
8397;SDS011;4236;54.504;9.588;2022-12-29T02:47:39;36.40;;;34.10;;
8397;SDS011;4236;54.504;9.588;2022-12-29T02:50:11;36.53;;;34.13;;
8397;SDS011;4236;54.504;9.588;2022-12-29T02:52:45;35.30;;;33.40;;
8397;SDS011;4236;54.504;9.588;2022-12-29T02:55:17;34.77;;;32.77;;
8397;SDS011;4236;54.504;9.588;2022-12-29T02:57:43;35.23;;;33.03;;
8397;SDS011;4236;54.504;9.588;2022-12-29T03:00:12;35.63;;;33.60;;
8397;SDS011;4236;54.504;9.588;2022-12-29T03:02:54;35.40;;;33.40;;
8397;SDS011;4236;54.504;9.588;2022-12-29T03:05:37;36.17;;;33.90;;
8397;SDS011;4236;54.504;9.588;2022-12-29T03:08:18;35.83;;;33.60;;
8397;SDS011;4236;54.504;9.588;2022-12-29T03:10:58;36.03;;;34.03;;
8397;SDS011;4236;54.504;9.588;2022-12-29T03:13:28;37.90;;;35.57;;
8397;SDS011;4236;54.504;9.588;2022-12-29T03:16:23;36.77;;;34.70;;
8397;SDS011;4236;54.504;9.588;2022-12-29T03:18:57;35.63;;;33.53;;
8397;SDS011;4236;54.504;9.588;2022-12-29T03:21:32;37.20;;;35.00;;
8397;SDS011;4236;54.504;9.588;2022-12-29T03:24:22;37.00;;;34.90;;
8397;SDS011;4236;54.504;9.588;2022-12-29T03:26:54;36.50;;;34.40;;
8397;SDS011;4236;54.504;9.588;2022-12-29T03:29:25;35.50;;;33.40;;
8397;SDS011;4236;54.504;9.588;2022-12-29T03:31:57;35.33;;;33.33;;
8397;SDS011;4236;54.504;9.588;2022-12-29T03:34:27;35.67;;;33.57;;
8397;SDS011;4236;54.504;9.588;2022-12-29T03:37:00;37.10;;;35.00;;
8397;SDS011;4236;54.504;9.588;2022-12-29T03:39:32;35.80;;;33.70;;
8397;SDS011;4236;54.504;9.588;2022-12-29T03:42:01;34.90;;;32.90;;
8397;SDS011;4236;54.504;9.588;2022-12-29T03:44:32;35.70;;;33.70;;
8397;SDS011;4236;54.504;9.588;2022-12-29T03:47:02;36.33;;;34.23;;
8397;SDS011;4236;54.504;9.588;2022-12-29T03:49:32;36.43;;;34.30;;
8397;SDS011;4236;54.504;9.588;2022-12-29T03:52:00;35.77;;;33.63;;
8397;SDS011;4236;54.504;9.588;2022-12-29T03:54:28;37.43;;;35.37;;
8397;SDS011;4236;54.504;9.588;2022-12-29T03:56:56;36.70;;;34.60;;
8397;SDS011;4236;54.504;9.588;2022-12-29T03:59:24;35.80;;;33.90;;
8397;SDS011;4236;54.504;9.588;2022-12-29T04:01:51;35.57;;;33.67;;
8397;SDS011;4236;54.504;9.588;2022-12-29T04:04:19;36.80;;;34.80;;
8397;SDS011;4236;54.504;9.588;2022-12-29T04:06:48;35.27;;;33.37;;
8397;SDS011;4236;54.504;9.588;2022-12-29T04:09:16;36.33;;;34.27;;
8397;SDS011;4236;54.504;9.588;2022-12-29T04:11:43;37.50;;;35.20;;
8397;SDS011;4236;54.504;9.588;2022-12-29T04:14:11;37.73;;;35.43;;
8397;SDS011;4236;54.504;9.588;2022-12-29T04:16:39;38.53;;;36.23;;
8397;SDS011;4236;54.504;9.588;2022-12-29T04:19:07;37.77;;;35.77;;
8397;SDS011;4236;54.504;9.588;2022-12-29T04:21:35;37.83;;;35.63;;
8397;SDS011;4236;54.504;9.588;2022-12-29T04:24:04;37.50;;;35.30;;
8397;SDS011;4236;54.504;9.588;2022-12-29T04:26:33;38.00;;;35.80;;
8397;SDS011;4236;54.504;9.588;2022-12-29T04:29:02;38.73;;;36.43;;
8397;SDS011;4236;54.504;9.588;2022-12-29T04:31:29;39.67;;;37.27;;
8397;SDS011;4236;54.504;9.588;2022-12-29T04:33:57;37.67;;;35.50;;
8397;SDS011;4236;54.504;9.588;2022-12-29T04:36:26;38.33;;;36.03;;
8397;SDS011;4236;54.504;9.588;2022-12-29T04:38:55;38.90;;;36.40;;
8397;SDS011;4236;54.504;9.588;2022-12-29T04:41:24;38.70;;;36.40;;
8397;SDS011;4236;54.504;9.588;2022-12-29T04:43:52;37.73;;;35.67;;
8397;SDS011;4236;54.504;9.588;2022-12-29T04:46:20;39.17;;;36.50;;
8397;SDS011;4236;54.504;9.588;2022-12-29T04:48:47;37.97;;;35.77;;
8397;SDS011;4236;54.504;9.588;2022-12-29T04:51:15;38.93;;;36.60;;
8397;SDS011;4236;54.504;9.588;2022-12-29T04:53:43;38.37;;;36.10;;
8397;SDS011;4236;54.504;9.588;2022-12-29T04:56:11;38.43;;;36.13;;
8397;SDS011;4236;54.504;9.588;2022-12-29T04:58:40;37.93;;;35.53;;
8397;SDS011;4236;54.504;9.588;2022-12-29T05:01:07;38.13;;;35.83;;
8397;SDS011;4236;54.504;9.588;2022-12-29T05:03:35;39.00;;;36.50;;
8397;SDS011;4236;54.504;9.588;2022-12-29T05:06:03;39.70;;;36.80;;
8397;SDS011;4236;54.504;9.588;2022-12-29T05:08:30;37.90;;;35.70;;
8397;SDS011;4236;54.504;9.588;2022-12-29T05:10:58;39.47;;;37.10;;
8397;SDS011;4236;54.504;9.588;2022-12-29T05:13:26;39.67;;;37.17;;
8397;SDS011;4236;54.504;9.588;2022-12-29T05:15:55;38.27;;;35.83;;
8397;SDS011;4236;54.504;9.588;2022-12-29T05:18:23;39.93;;;37.33;;
8397;SDS011;4236;54.504;9.588;2022-12-29T05:20:50;39.97;;;37.47;;
8397;SDS011;4236;54.504;9.588;2022-12-29T05:23:18;39.40;;;37.00;;
8397;SDS011;4236;54.504;9.588;2022-12-29T05:25:46;38.17;;;35.90;;
8397;SDS011;4236;54.504;9.588;2022-12-29T05:28:13;40.27;;;37.67;;
8397;SDS011;4236;54.504;9.588;2022-12-29T05:30:43;38.70;;;36.20;;
8397;SDS011;4236;54.504;9.588;2022-12-29T05:33:12;36.83;;;34.80;;
8397;SDS011;4236;54.504;9.588;2022-12-29T05:35:40;38.43;;;35.83;;
8397;SDS011;4236;54.504;9.588;2022-12-29T05:38:08;34.70;;;32.57;;
8397;SDS011;4236;54.504;9.588;2022-12-29T05:40:35;30.70;;;29.10;;
8397;SDS011;4236;54.504;9.588;2022-12-29T05:43:03;30.47;;;28.87;;
8397;SDS011;4236;54.504;9.588;2022-12-29T05:45:31;29.50;;;28.10;;
8397;SDS011;4236;54.504;9.588;2022-12-29T05:47:59;29.47;;;28.07;;
8397;SDS011;4236;54.504;9.588;2022-12-29T05:50:28;30.07;;;28.67;;
8397;SDS011;4236;54.504;9.588;2022-12-29T05:52:55;31.57;;;29.97;;
8397;SDS011;4236;54.504;9.588;2022-12-29T05:55:23;29.30;;;27.90;;
8397;SDS011;4236;54.504;9.588;2022-12-29T05:57:51;27.60;;;26.30;;
8397;SDS011;4236;54.504;9.588;2022-12-29T06:00:18;28.07;;;26.67;;
8397;SDS011;4236;54.504;9.588;2022-12-29T06:02:46;27.00;;;25.70;;
8397;SDS011;4236;54.504;9.588;2022-12-29T06:05:14;27.33;;;26.03;;
8397;SDS011;4236;54.504;9.588;2022-12-29T06:07:43;27.40;;;26.03;;
8397;SDS011;4236;54.504;9.588;2022-12-29T06:10:11;26.93;;;25.70;;
8397;SDS011;4236;54.504;9.588;2022-12-29T06:12:39;26.20;;;25.10;;
8397;SDS011;4236;54.504;9.588;2022-12-29T06:15:07;26.63;;;25.43;;
8397;SDS011;4236;54.504;9.588;2022-12-29T06:17:35;27.13;;;25.93;;
8397;SDS011;4236;54.504;9.588;2022-12-29T06:20:03;26.70;;;25.40;;
8397;SDS011;4236;54.504;9.588;2022-12-29T06:22:31;27.30;;;26.00;;
8397;SDS011;4236;54.504;9.588;2022-12-29T06:25:00;28.13;;;26.77;;
8397;SDS011;4236;54.504;9.588;2022-12-29T06:27:30;28.30;;;27.00;;
8397;SDS011;4236;54.504;9.588;2022-12-29T06:29:59;28.40;;;26.83;;
8397;SDS011;4236;54.504;9.588;2022-12-29T06:32:26;29.07;;;27.37;;
8397;SDS011;4236;54.504;9.588;2022-12-29T06:34:54;27.90;;;26.60;;
8397;SDS011;4236;54.504;9.588;2022-12-29T06:37:22;30.17;;;28.53;;
8397;SDS011;4236;54.504;9.588;2022-12-29T06:39:49;29.23;;;27.60;;
8397;SDS011;4236;54.504;9.588;2022-12-29T06:42:18;30.33;;;28.63;;
8397;SDS011;4236;54.504;9.588;2022-12-29T06:44:46;30.07;;;28.43;;
8397;SDS011;4236;54.504;9.588;2022-12-29T06:47:14;30.03;;;28.53;;
8397;SDS011;4236;54.504;9.588;2022-12-29T06:49:42;30.10;;;28.30;;
8397;SDS011;4236;54.504;9.588;2022-12-29T06:52:10;30.10;;;28.40;;
8397;SDS011;4236;54.504;9.588;2022-12-29T06:54:39;29.13;;;27.50;;
8397;SDS011;4236;54.504;9.588;2022-12-29T06:57:07;29.50;;;27.67;;
8397;SDS011;4236;54.504;9.588;2022-12-29T06:59:35;29.63;;;28.03;;
8397;SDS011;4236;54.504;9.588;2022-12-29T07:02:03;29.70;;;28.20;;
8397;SDS011;4236;54.504;9.588;2022-12-29T07:04:31;29.40;;;27.70;;
8397;SDS011;4236;54.504;9.588;2022-12-29T07:06:59;30.10;;;28.40;;
8397;SDS011;4236;54.504;9.588;2022-12-29T07:09:26;29.40;;;28.00;;
8397;SDS011;4236;54.504;9.588;2022-12-29T07:11:54;29.57;;;28.10;;
8397;SDS011;4236;54.504;9.588;2022-12-29T07:14:22;29.30;;;27.70;;
8397;SDS011;4236;54.504;9.588;2022-12-29T07:16:51;29.70;;;28.20;;
8397;SDS011;4236;54.504;9.588;2022-12-29T07:19:18;30.00;;;28.50;;
8397;SDS011;4236;54.504;9.588;2022-12-29T07:21:46;30.40;;;28.80;;
8397;SDS011;4236;54.504;9.588;2022-12-29T07:24:14;30.30;;;28.80;;
8397;SDS011;4236;54.504;9.588;2022-12-29T07:26:41;29.40;;;28.07;;
8397;SDS011;4236;54.504;9.588;2022-12-29T07:29:09;29.73;;;28.10;;
8397;SDS011;4236;54.504;9.588;2022-12-29T07:31:37;29.67;;;28.27;;
8397;SDS011;4236;54.504;9.588;2022-12-29T07:34:07;29.87;;;28.40;;
8397;SDS011;4236;54.504;9.588;2022-12-29T07:36:35;28.87;;;27.40;;
8397;SDS011;4236;54.504;9.588;2022-12-29T07:39:03;29.70;;;28.00;;
8397;SDS011;4236;54.504;9.588;2022-12-29T07:41:30;28.97;;;27.60;;
8397;SDS011;4236;54.504;9.588;2022-12-29T07:43:58;28.40;;;27.00;;
8397;SDS011;4236;54.504;9.588;2022-12-29T07:46:26;29.73;;;27.67;;
8397;SDS011;4236;54.504;9.588;2022-12-29T07:49:15;28.83;;;27.33;;
8397;SDS011;4236;54.504;9.588;2022-12-29T07:51:43;28.37;;;27.07;;
8397;SDS011;4236;54.504;9.588;2022-12-29T07:54:11;29.87;;;28.07;;
8397;SDS011;4236;54.504;9.588;2022-12-29T07:56:39;30.47;;;28.33;;
8397;SDS011;4236;54.504;9.588;2022-12-29T07:59:06;29.83;;;28.40;;
8397;SDS011;4236;54.504;9.588;2022-12-29T08:01:34;30.47;;;28.73;;
8397;SDS011;4236;54.504;9.588;2022-12-29T08:04:02;29.90;;;28.00;;
8397;SDS011;4236;54.504;9.588;2022-12-29T08:06:31;29.87;;;28.47;;
8397;SDS011;4236;54.504;9.588;2022-12-29T08:08:59;30.63;;;28.73;;
8397;SDS011;4236;54.504;9.588;2022-12-29T08:11:37;29.77;;;28.00;;
8397;SDS011;4236;54.504;9.588;2022-12-29T08:14:06;30.23;;;28.30;;
8397;SDS011;4236;54.504;9.588;2022-12-29T08:16:34;29.23;;;27.63;;
8397;SDS011;4236;54.504;9.588;2022-12-29T08:19:02;29.93;;;28.17;;
8397;SDS011;4236;54.504;9.588;2022-12-29T08:21:32;30.17;;;28.37;;
8397;SDS011;4236;54.504;9.588;2022-12-29T08:24:00;29.80;;;28.20;;
8397;SDS011;4236;54.504;9.588;2022-12-29T08:26:27;30.40;;;28.63;;
8397;SDS011;4236;54.504;9.588;2022-12-29T08:28:55;30.63;;;28.10;;
8397;SDS011;4236;54.504;9.588;2022-12-29T08:31:23;30.27;;;28.47;;
8397;SDS011;4236;54.504;9.588;2022-12-29T08:33:51;30.03;;;28.40;;
8397;SDS011;4236;54.504;9.588;2022-12-29T08:36:19;30.60;;;28.30;;
8397;SDS011;4236;54.504;9.588;2022-12-29T08:38:48;29.37;;;27.57;;
8397;SDS011;4236;54.504;9.588;2022-12-29T08:41:16;30.77;;;28.50;;
8397;SDS011;4236;54.504;9.588;2022-12-29T08:43:45;29.87;;;27.83;;
8397;SDS011;4236;54.504;9.588;2022-12-29T08:46:13;30.10;;;28.17;;
8397;SDS011;4236;54.504;9.588;2022-12-29T08:48:41;29.73;;;28.13;;
8397;SDS011;4236;54.504;9.588;2022-12-29T08:51:08;29.50;;;27.83;;
8397;SDS011;4236;54.504;9.588;2022-12-29T08:53:36;29.00;;;27.40;;
8397;SDS011;4236;54.504;9.588;2022-12-29T08:56:06;29.37;;;27.70;;
8397;SDS011;4236;54.504;9.588;2022-12-29T08:58:35;29.50;;;27.83;;
8397;SDS011;4236;54.504;9.588;2022-12-29T09:01:03;29.50;;;27.43;;
8397;SDS011;4236;54.504;9.588;2022-12-29T09:03:31;30.67;;;28.80;;
8397;SDS011;4236;54.504;9.588;2022-12-29T09:06:18;29.73;;;27.93;;
8397;SDS011;4236;54.504;9.588;2022-12-29T09:08:47;31.13;;;29.40;;
8397;SDS011;4236;54.504;9.588;2022-12-29T09:11:17;31.23;;;29.60;;
8397;SDS011;4236;54.504;9.588;2022-12-29T09:13:46;32.13;;;30.07;;
8397;SDS011;4236;54.504;9.588;2022-12-29T09:16:14;29.80;;;28.30;;
8397;SDS011;4236;54.504;9.588;2022-12-29T09:18:43;32.50;;;30.03;;
8397;SDS011;4236;54.504;9.588;2022-12-29T09:21:12;29.87;;;28.17;;
8397;SDS011;4236;54.504;9.588;2022-12-29T09:23:40;30.33;;;28.00;;
8397;SDS011;4236;54.504;9.588;2022-12-29T09:26:07;31.77;;;29.40;;
8397;SDS011;4236;54.504;9.588;2022-12-29T09:28:36;31.00;;;29.40;;
8397;SDS011;4236;54.504;9.588;2022-12-29T09:31:04;30.40;;;28.60;;
8397;SDS011;4236;54.504;9.588;2022-12-29T09:33:32;31.80;;;29.50;;
8397;SDS011;4236;54.504;9.588;2022-12-29T09:36:00;31.37;;;28.87;;
8397;SDS011;4236;54.504;9.588;2022-12-29T09:38:28;30.90;;;29.10;;
8397;SDS011;4236;54.504;9.588;2022-12-29T09:40:59;30.77;;;28.57;;
8397;SDS011;4236;54.504;9.588;2022-12-29T09:43:41;33.37;;;30.60;;
8397;SDS011;4236;54.504;9.588;2022-12-29T09:46:22;32.70;;;30.27;;
8397;SDS011;4236;54.504;9.588;2022-12-29T09:48:54;31.20;;;28.57;;
8397;SDS011;4236;54.504;9.588;2022-12-29T09:51:29;31.53;;;29.20;;
8397;SDS011;4236;54.504;9.588;2022-12-29T09:54:00;31.90;;;28.90;;
8397;SDS011;4236;54.504;9.588;2022-12-29T09:56:41;31.60;;;29.47;;
8397;SDS011;4236;54.504;9.588;2022-12-29T09:59:13;29.77;;;28.13;;
8397;SDS011;4236;54.504;9.588;2022-12-29T10:01:46;30.47;;;28.57;;
8397;SDS011;4236;54.504;9.588;2022-12-29T10:04:20;30.33;;;28.70;;
8397;SDS011;4236;54.504;9.588;2022-12-29T10:06:57;30.90;;;28.70;;
8397;SDS011;4236;54.504;9.588;2022-12-29T10:09:52;32.30;;;30.10;;
8397;SDS011;4236;54.504;9.588;2022-12-29T10:12:28;32.07;;;30.00;;
8397;SDS011;4236;54.504;9.588;2022-12-29T10:15:09;30.20;;;28.03;;
8397;SDS011;4236;54.504;9.588;2022-12-29T10:17:46;31.13;;;28.90;;
8397;SDS011;4236;54.504;9.588;2022-12-29T10:20:25;30.37;;;28.20;;
8397;SDS011;4236;54.504;9.588;2022-12-29T10:23:05;30.03;;;28.27;;
8397;SDS011;4236;54.504;9.588;2022-12-29T10:25:46;30.57;;;28.20;;
8397;SDS011;4236;54.504;9.588;2022-12-29T10:28:15;29.93;;;27.93;;
8397;SDS011;4236;54.504;9.588;2022-12-29T10:30:50;29.53;;;27.63;;
8397;SDS011;4236;54.504;9.588;2022-12-29T10:33:19;30.83;;;28.50;;
8397;SDS011;4236;54.504;9.588;2022-12-29T10:35:50;30.20;;;28.23;;
8397;SDS011;4236;54.504;9.588;2022-12-29T10:38:20;31.20;;;28.90;;
8397;SDS011;4236;54.504;9.588;2022-12-29T10:40:54;31.03;;;28.93;;
8397;SDS011;4236;54.504;9.588;2022-12-29T10:43:26;31.57;;;29.33;;
8397;SDS011;4236;54.504;9.588;2022-12-29T10:45:58;29.60;;;27.83;;
8397;SDS011;4236;54.504;9.588;2022-12-29T10:48:28;27.77;;;26.23;;
8397;SDS011;4236;54.504;9.588;2022-12-29T10:50:58;29.57;;;27.93;;
8397;SDS011;4236;54.504;9.588;2022-12-29T10:53:30;31.07;;;28.83;;
8397;SDS011;4236;54.504;9.588;2022-12-29T10:56:03;29.30;;;27.67;;
8397;SDS011;4236;54.504;9.588;2022-12-29T10:58:36;29.70;;;27.67;;
8397;SDS011;4236;54.504;9.588;2022-12-29T11:01:07;30.03;;;27.73;;
8397;SDS011;4236;54.504;9.588;2022-12-29T11:03:50;28.87;;;27.03;;
8397;SDS011;4236;54.504;9.588;2022-12-29T11:06:29;29.40;;;27.30;;
8397;SDS011;4236;54.504;9.588;2022-12-29T11:08:58;29.47;;;27.80;;
8397;SDS011;4236;54.504;9.588;2022-12-29T11:11:32;30.07;;;28.20;;
8397;SDS011;4236;54.504;9.588;2022-12-29T11:14:02;28.70;;;27.03;;
8397;SDS011;4236;54.504;9.588;2022-12-29T11:16:40;30.13;;;28.33;;
8397;SDS011;4236;54.504;9.588;2022-12-29T11:19:20;28.60;;;27.20;;
8397;SDS011;4236;54.504;9.588;2022-12-29T11:21:49;29.13;;;27.10;;
8397;SDS011;4236;54.504;9.588;2022-12-29T11:24:18;29.67;;;27.80;;
8397;SDS011;4236;54.504;9.588;2022-12-29T11:26:49;28.60;;;27.10;;
8397;SDS011;4236;54.504;9.588;2022-12-29T11:29:23;28.37;;;26.90;;
8397;SDS011;4236;54.504;9.588;2022-12-29T11:31:54;29.40;;;27.50;;
8397;SDS011;4236;54.504;9.588;2022-12-29T11:34:24;27.70;;;26.20;;
8397;SDS011;4236;54.504;9.588;2022-12-29T11:36:58;28.13;;;26.73;;
8397;SDS011;4236;54.504;9.588;2022-12-29T11:39:33;29.97;;;28.07;;
8397;SDS011;4236;54.504;9.588;2022-12-29T11:42:06;28.83;;;26.97;;
8397;SDS011;4236;54.504;9.588;2022-12-29T11:44:42;29.50;;;27.77;;
8397;SDS011;4236;54.504;9.588;2022-12-29T11:47:19;29.00;;;27.20;;
8397;SDS011;4236;54.504;9.588;2022-12-29T11:49:51;29.50;;;27.40;;
8397;SDS011;4236;54.504;9.588;2022-12-29T11:52:21;27.83;;;26.23;;
8397;SDS011;4236;54.504;9.588;2022-12-29T11:54:51;29.27;;;27.30;;
8397;SDS011;4236;54.504;9.588;2022-12-29T11:57:20;29.20;;;27.57;;
8397;SDS011;4236;54.504;9.588;2022-12-29T11:59:50;30.90;;;28.07;;
8397;SDS011;4236;54.504;9.588;2022-12-29T12:02:24;29.30;;;27.57;;
8397;SDS011;4236;54.504;9.588;2022-12-29T12:05:09;29.47;;;27.20;;
8397;SDS011;4236;54.504;9.588;2022-12-29T12:07:42;28.90;;;26.90;;
8397;SDS011;4236;54.504;9.588;2022-12-29T12:10:14;30.03;;;27.67;;
8397;SDS011;4236;54.504;9.588;2022-12-29T12:12:48;32.60;;;29.07;;
8397;SDS011;4236;54.504;9.588;2022-12-29T12:15:22;29.23;;;27.00;;
8397;SDS011;4236;54.504;9.588;2022-12-29T12:17:55;29.20;;;27.00;;
8397;SDS011;4236;54.504;9.588;2022-12-29T12:20:27;29.40;;;27.30;;
8397;SDS011;4236;54.504;9.588;2022-12-29T12:23:07;28.97;;;26.70;;
8397;SDS011;4236;54.504;9.588;2022-12-29T12:25:46;29.03;;;26.60;;
8397;SDS011;4236;54.504;9.588;2022-12-29T12:28:24;29.07;;;26.63;;
8397;SDS011;4236;54.504;9.588;2022-12-29T12:31:02;29.40;;;27.33;;
8397;SDS011;4236;54.504;9.588;2022-12-29T12:33:42;29.07;;;27.23;;
8397;SDS011;4236;54.504;9.588;2022-12-29T12:36:22;30.60;;;28.43;;
8397;SDS011;4236;54.504;9.588;2022-12-29T12:39:10;29.50;;;27.40;;
8397;SDS011;4236;54.504;9.588;2022-12-29T12:41:48;29.10;;;27.30;;
8397;SDS011;4236;54.504;9.588;2022-12-29T12:44:23;29.40;;;27.40;;
8397;SDS011;4236;54.504;9.588;2022-12-29T12:47:07;29.50;;;27.33;;
8397;SDS011;4236;54.504;9.588;2022-12-29T12:50:18;30.10;;;28.13;;
8397;SDS011;4236;54.504;9.588;2022-12-29T12:53:06;29.60;;;27.10;;
8397;SDS011;4236;54.504;9.588;2022-12-29T12:55:53;28.60;;;26.93;;
8397;SDS011;4236;54.504;9.588;2022-12-29T12:58:32;28.07;;;26.13;;
8397;SDS011;4236;54.504;9.588;2022-12-29T13:01:11;28.30;;;26.07;;
8397;SDS011;4236;54.504;9.588;2022-12-29T13:03:59;29.00;;;27.20;;
8397;SDS011;4236;54.504;9.588;2022-12-29T13:06:41;29.60;;;27.60;;
8397;SDS011;4236;54.504;9.588;2022-12-29T13:09:21;29.37;;;27.30;;
8397;SDS011;4236;54.504;9.588;2022-12-29T13:12:08;29.53;;;27.50;;
8397;SDS011;4236;54.504;9.588;2022-12-29T13:14:49;29.93;;;27.77;;
8397;SDS011;4236;54.504;9.588;2022-12-29T13:17:26;30.20;;;28.13;;
8397;SDS011;4236;54.504;9.588;2022-12-29T13:19:59;29.07;;;27.57;;
8397;SDS011;4236;54.504;9.588;2022-12-29T13:22:38;29.20;;;27.60;;
8397;SDS011;4236;54.504;9.588;2022-12-29T13:25:18;29.07;;;27.40;;
8397;SDS011;4236;54.504;9.588;2022-12-29T13:27:54;30.43;;;28.37;;
8397;SDS011;4236;54.504;9.588;2022-12-29T13:30:28;31.03;;;28.63;;
8397;SDS011;4236;54.504;9.588;2022-12-29T13:33:04;30.57;;;28.23;;
8397;SDS011;4236;54.504;9.588;2022-12-29T13:35:52;31.93;;;29.00;;
8397;SDS011;4236;54.504;9.588;2022-12-29T13:38:26;30.43;;;28.13;;
8397;SDS011;4236;54.504;9.588;2022-12-29T13:41:00;29.90;;;27.90;;
8397;SDS011;4236;54.504;9.588;2022-12-29T13:43:32;30.30;;;27.60;;
8397;SDS011;4236;54.504;9.588;2022-12-29T13:46:04;30.13;;;27.77;;
8397;SDS011;4236;54.504;9.588;2022-12-29T13:48:39;32.50;;;29.27;;
8397;SDS011;4236;54.504;9.588;2022-12-29T13:51:12;32.13;;;28.80;;
8397;SDS011;4236;54.504;9.588;2022-12-29T13:53:48;30.97;;;28.47;;
8397;SDS011;4236;54.504;9.588;2022-12-29T13:56:30;32.33;;;29.23;;
8397;SDS011;4236;54.504;9.588;2022-12-29T13:59:03;35.23;;;30.33;;
8397;SDS011;4236;54.504;9.588;2022-12-29T14:01:39;33.20;;;30.20;;
8397;SDS011;4236;54.504;9.588;2022-12-29T14:04:16;33.03;;;30.10;;
8397;SDS011;4236;54.504;9.588;2022-12-29T14:06:58;32.83;;;30.30;;
8397;SDS011;4236;54.504;9.588;2022-12-29T14:09:34;34.23;;;31.03;;
8397;SDS011;4236;54.504;9.588;2022-12-29T14:15:05;36.57;;;33.10;;
8397;SDS011;4236;54.504;9.588;2022-12-29T14:18:05;34.80;;;31.50;;
8397;SDS011;4236;54.504;9.588;2022-12-29T14:20:39;34.00;;;30.40;;
8397;SDS011;4236;54.504;9.588;2022-12-29T14:23:24;33.17;;;29.90;;
8397;SDS011;4236;54.504;9.588;2022-12-29T14:28:41;32.53;;;28.90;;
8397;SDS011;4236;54.504;9.588;2022-12-29T14:37:04;32.87;;;30.30;;
8397;SDS011;4236;54.504;9.588;2022-12-29T14:39:45;33.03;;;29.53;;
8397;SDS011;4236;54.504;9.588;2022-12-29T14:42:15;38.60;;;30.00;;
8397;SDS011;4236;54.504;9.588;2022-12-29T14:44:49;31.50;;;29.00;;
8397;SDS011;4236;54.504;9.588;2022-12-29T14:47:19;34.57;;;30.87;;
8397;SDS011;4236;54.504;9.588;2022-12-29T14:49:49;33.20;;;29.77;;
8397;SDS011;4236;54.504;9.588;2022-12-29T14:52:19;33.97;;;30.43;;
8397;SDS011;4236;54.504;9.588;2022-12-29T14:54:52;30.97;;;28.23;;
8397;SDS011;4236;54.504;9.588;2022-12-29T14:57:29;33.33;;;30.10;;
8397;SDS011;4236;54.504;9.588;2022-12-29T15:00:03;32.67;;;29.57;;
8397;SDS011;4236;54.504;9.588;2022-12-29T15:02:36;33.30;;;30.80;;
8397;SDS011;4236;54.504;9.588;2022-12-29T15:05:23;33.27;;;30.10;;
8397;SDS011;4236;54.504;9.588;2022-12-29T15:07:55;34.93;;;31.30;;
8397;SDS011;4236;54.504;9.588;2022-12-29T15:10:25;36.63;;;29.90;;
8397;SDS011;4236;54.504;9.588;2022-12-29T15:13:02;33.13;;;30.00;;
8397;SDS011;4236;54.504;9.588;2022-12-29T15:15:36;36.27;;;30.00;;
8397;SDS011;4236;54.504;9.588;2022-12-29T15:18:14;32.17;;;29.60;;
8397;SDS011;4236;54.504;9.588;2022-12-29T15:20:50;33.80;;;30.47;;
8397;SDS011;4236;54.504;9.588;2022-12-29T15:23:20;35.93;;;31.83;;
8397;SDS011;4236;54.504;9.588;2022-12-29T15:25:50;32.33;;;29.60;;
8397;SDS011;4236;54.504;9.588;2022-12-29T15:28:22;33.37;;;29.80;;
8397;SDS011;4236;54.504;9.588;2022-12-29T15:30:51;33.93;;;31.00;;
8397;SDS011;4236;54.504;9.588;2022-12-29T15:33:20;39.03;;;30.70;;
8397;SDS011;4236;54.504;9.588;2022-12-29T15:35:50;33.90;;;31.30;;